Time;durP1;ratioP1;P1;durP2;ratioP2;P2;SDS_P1;SDS_P2;PMS_P1;PMS_P2;Temp;Humidity;BMP_temperature;BMP_pressure;BME280_temperature;BME280_humidity;BME280_pressure;Samples;Min_cycle;Max_cycle;Signal;HPM_P1;HPM_P2
2024/01/24 00:01:04;;;;;;;1.80;0.57;;;;;;;;;;4986501;28;20178;-71
2024/01/24 00:03:29;;;;;;;1.17;0.70;;;;;;;;;;4986332;28;20293;-70
2024/01/24 00:05:54;;;;;;;2.40;0.60;;;;;;;;;;4987497;28;20190;-71
2024/01/24 00:08:20;;;;;;;1.15;0.70;;;;;;;;;;4991916;28;20176;-69
2024/01/24 00:10:45;;;;;;;4.38;0.90;;;;;;;;;;4989645;28;20667;-71
2024/01/24 00:13:10;;;;;;;0.70;0.65;;;;;;;;;;4982954;28;20207;-71
2024/01/24 00:15:35;;;;;;;0.60;0.60;;;;;;;;;;4965880;28;20187;-70
2024/01/24 00:18:00;;;;;;;0.75;0.73;;;;;;;;;;4972644;28;20176;-70
2024/01/24 00:20:26;;;;;;;1.10;1.00;;;;;;;;;;4990547;28;20175;-71
2024/01/24 00:22:51;;;;;;;4.47;1.23;;;;;;;;;;4973191;28;20554;-70
2024/01/24 00:25:16;;;;;;;1.70;1.50;;;;;;;;;;4972752;28;20211;-70
2024/01/24 00:27:42;;;;;;;1.00;0.77;;;;;;;;;;4987958;28;20262;-71
2024/01/24 00:30:07;;;;;;;2.17;0.90;;;;;;;;;;4972810;28;20196;-71
2024/01/24 00:32:32;;;;;;;1.08;0.90;;;;;;;;;;4983442;28;20223;-72
2024/01/24 00:34:58;;;;;;;2.95;1.10;;;;;;;;;;4981107;28;20203;-71
2024/01/24 00:37:23;;;;;;;2.85;1.00;;;;;;;;;;4989081;28;20167;-71
2024/01/24 00:39:48;;;;;;;3.17;0.90;;;;;;;;;;4985433;28;20180;-72
2024/01/24 00:42:13;;;;;;;3.38;1.08;;;;;;;;;;4988944;28;20242;-71
2024/01/24 00:44:39;;;;;;;2.45;1.33;;;;;;;;;;4993256;28;20204;-72
2024/01/24 00:47:04;;;;;;;0.98;0.90;;;;;;;;;;4989331;28;20183;-71
2024/01/24 00:49:30;;;;;;;2.65;1.35;;;;;;;;;;4993969;28;20215;-72
2024/01/24 00:51:55;;;;;;;1.27;1.17;;;;;;;;;;4983015;28;20686;-71
2024/01/24 00:54:20;;;;;;;4.20;1.40;;;;;;;;;;4992093;28;20226;-72
2024/01/24 00:56:45;;;;;;;1.55;1.10;;;;;;;;;;4989462;28;20183;-71
2024/01/24 00:59:11;;;;;;;1.15;0.93;;;;;;;;;;4993220;28;20615;-72
2024/01/24 01:01:36;;;;;;;2.15;0.98;;;;;;;;;;4991297;28;20194;-70
2024/01/24 01:04:01;;;;;;;3.10;1.10;;;;;;;;;;4975347;28;20211;-70
2024/01/24 01:06:27;;;;;;;4.90;0.90;;;;;;;;;;4991999;28;20237;-71
2024/01/24 01:08:52;;;;;;;2.85;1.00;;;;;;;;;;4984706;28;20185;-71
2024/01/24 01:11:17;;;;;;;1.67;1.00;;;;;;;;;;4987569;28;20637;-72
2024/01/24 01:13:42;;;;;;;1.00;0.90;;;;;;;;;;4993627;28;21828;-71
2024/01/24 01:16:08;;;;;;;2.05;0.90;;;;;;;;;;4990252;28;20168;-70
2024/01/24 01:18:33;;;;;;;7.00;1.60;;;;;;;;;;4993895;28;20610;-72
2024/01/24 01:20:58;;;;;;;2.67;0.90;;;;;;;;;;4992769;28;20183;-71
2024/01/24 01:23:24;;;;;;;1.50;0.98;;;;;;;;;;4994764;28;20227;-72
2024/01/24 01:25:49;;;;;;;1.67;1.20;;;;;;;;;;4993785;28;20669;-71
2024/01/24 01:28:14;;;;;;;2.67;1.25;;;;;;;;;;4990574;28;20243;-71
2024/01/24 01:30:39;;;;;;;2.53;1.67;;;;;;;;;;4993260;28;20322;-71
2024/01/24 01:33:04;;;;;;;2.13;1.25;;;;;;;;;;4986949;28;20207;-71
2024/01/24 01:35:29;;;;;;;3.90;1.23;;;;;;;;;;4987833;28;20176;-70
2024/01/24 01:37:55;;;;;;;2.65;1.38;;;;;;;;;;4992710;28;20255;-71
2024/01/24 01:40:20;;;;;;;1.85;1.20;;;;;;;;;;4991043;28;20194;-72
2024/01/24 01:42:45;;;;;;;5.00;1.45;;;;;;;;;;4981483;28;20191;-71
2024/01/24 01:45:11;;;;;;;1.10;1.00;;;;;;;;;;4988232;28;20281;-71
2024/01/24 01:47:37;;;;;;;1.17;1.00;;;;;;;;;;4984143;28;20180;-71
2024/01/24 01:50:03;;;;;;;2.00;1.23;;;;;;;;;;4971644;28;20179;-71
2024/01/24 01:52:28;;;;;;;2.80;1.20;;;;;;;;;;4989850;28;20183;-70
2024/01/24 01:54:53;;;;;;;1.55;1.45;;;;;;;;;;4989642;28;20602;-71
2024/01/24 01:57:18;;;;;;;1.38;1.27;;;;;;;;;;4994616;28;20175;-71
2024/01/24 01:59:44;;;;;;;1.75;1.45;;;;;;;;;;4995810;28;20219;-70
2024/01/24 02:02:10;;;;;;;6.85;1.30;;;;;;;;;;4974894;28;20267;-72
2024/01/24 02:04:36;;;;;;;4.28;1.45;;;;;;;;;;4984361;28;20203;-72
2024/01/24 02:07:02;;;;;;;2.88;1.50;;;;;;;;;;4989605;28;20172;-72
2024/01/24 02:09:27;;;;;;;4.07;1.50;;;;;;;;;;4972223;28;20198;-72
2024/01/24 02:11:52;;;;;;;5.55;1.45;;;;;;;;;;4982773;28;20176;-70
2024/01/24 02:14:18;;;;;;;1.75;1.00;;;;;;;;;;4987805;28;20215;-71
2024/01/24 02:16:43;;;;;;;2.35;1.38;;;;;;;;;;4964899;28;20175;-71
2024/01/24 02:19:08;;;;;;;4.90;1.05;;;;;;;;;;4992106;28;20777;-70
2024/01/24 02:21:33;;;;;;;4.60;1.55;;;;;;;;;;5000375;28;20180;-71
2024/01/24 02:23:59;;;;;;;4.35;1.40;;;;;;;;;;4984698;28;20195;-71
2024/01/24 02:26:24;;;;;;;1.70;1.05;;;;;;;;;;4989218;28;20180;-71
2024/01/24 02:28:50;;;;;;;5.97;1.10;;;;;;;;;;4990966;28;20199;-71
2024/01/24 02:31:15;;;;;;;2.80;1.10;;;;;;;;;;4988555;28;20199;-71
2024/01/24 02:33:40;;;;;;;4.82;1.30;;;;;;;;;;4990100;28;20258;-70
2024/01/24 02:36:05;;;;;;;1.63;1.08;;;;;;;;;;4990500;28;20222;-71
2024/01/24 02:38:30;;;;;;;1.58;0.95;;;;;;;;;;4992408;28;20226;-71
2024/01/24 02:40:56;;;;;;;3.17;1.73;;;;;;;;;;4995037;28;20179;-71
2024/01/24 02:43:21;;;;;;;8.30;1.33;;;;;;;;;;4982901;28;20246;-72
2024/01/24 02:45:46;;;;;;;7.55;1.95;;;;;;;;;;4991684;28;20559;-71
2024/01/24 02:48:11;;;;;;;4.78;1.38;;;;;;;;;;4990095;28;20177;-72
2024/01/24 02:50:36;;;;;;;6.13;1.65;;;;;;;;;;4980382;28;20289;-72
2024/01/24 02:53:02;;;;;;;7.68;1.08;;;;;;;;;;4986118;28;20210;-69
2024/01/24 02:55:29;;;;;;;4.95;1.58;;;;;;;;;;4988495;28;20607;-71
2024/01/24 02:57:54;;;;;;;5.93;1.30;;;;;;;;;;4970656;28;20176;-71
2024/01/24 03:00:19;;;;;;;8.55;1.60;;;;;;;;;;4985785;28;20702;-71
2024/01/24 03:02:44;;;;;;;7.47;1.20;;;;;;;;;;4989239;28;20180;-70
2024/01/24 03:05:10;;;;;;;7.38;1.05;;;;;;;;;;4983414;28;20219;-72
2024/01/24 03:07:36;;;;;;;7.22;1.65;;;;;;;;;;4991538;28;20258;-70
2024/01/24 03:10:02;;;;;;;7.40;1.20;;;;;;;;;;4969001;28;20175;-71
2024/01/24 03:12:27;;;;;;;5.65;1.65;;;;;;;;;;4990186;28;20175;-72
2024/01/24 03:14:52;;;;;;;5.97;1.63;;;;;;;;;;4988634;28;20219;-71
2024/01/24 03:17:18;;;;;;;6.32;1.83;;;;;;;;;;4990361;28;20183;-71
2024/01/24 03:19:43;;;;;;;7.15;1.85;;;;;;;;;;4981441;28;20612;-71
2024/01/24 03:22:09;;;;;;;4.78;1.05;;;;;;;;;;4993865;28;20638;-71
2024/01/24 03:24:34;;;;;;;8.93;1.20;;;;;;;;;;4987755;28;20219;-71
2024/01/24 03:26:59;;;;;;;6.70;0.98;;;;;;;;;;4991057;28;20254;-71
2024/01/24 03:29:24;;;;;;;6.30;1.52;;;;;;;;;;4989704;28;20235;-70
2024/01/24 03:31:50;;;;;;;11.02;1.42;;;;;;;;;;4987629;28;20184;-70
2024/01/24 03:34:15;;;;;;;5.55;1.75;;;;;;;;;;4985183;28;20263;-72
2024/01/24 03:36:40;;;;;;;10.05;2.03;;;;;;;;;;4976437;28;20191;-71
2024/01/24 03:39:09;;;;;;;6.28;1.65;;;;;;;;;;4968683;28;20201;-70
2024/01/24 03:41:35;;;;;;;11.90;2.13;;;;;;;;;;4992200;28;20171;-71
2024/01/24 03:44:00;;;;;;;6.82;2.25;;;;;;;;;;4992620;28;20210;-72
2024/01/24 03:46:25;;;;;;;14.48;1.98;;;;;;;;;;4993455;28;20210;-70
2024/01/24 03:48:50;;;;;;;7.97;1.95;;;;;;;;;;4986781;28;20651;-71
2024/01/24 03:51:16;;;;;;;13.55;3.08;;;;;;;;;;4990248;28;20229;-72
2024/01/24 03:53:41;;;;;;;10.90;2.53;;;;;;;;;;4969725;28;20211;-71
2024/01/24 03:56:06;;;;;;;9.02;2.15;;;;;;;;;;4974074;28;20177;-71
2024/01/24 03:58:31;;;;;;;17.90;2.78;;;;;;;;;;4982620;28;20191;-71
2024/01/24 04:00:57;;;;;;;12.75;3.28;;;;;;;;;;4982708;28;20188;-70
2024/01/24 04:03:22;;;;;;;13.63;3.05;;;;;;;;;;4965160;28;20227;-70
2024/01/24 04:05:47;;;;;;;10.98;2.78;;;;;;;;;;4971633;28;20180;-71
2024/01/24 04:08:12;;;;;;;13.07;2.53;;;;;;;;;;4986220;28;20184;-72
2024/01/24 04:10:38;;;;;;;15.73;3.10;;;;;;;;;;4983839;28;20202;-71
2024/01/24 04:13:03;;;;;;;16.35;3.58;;;;;;;;;;4985152;28;20206;-71
2024/01/24 04:15:28;;;;;;;18.60;2.88;;;;;;;;;;4983427;28;20188;-71
2024/01/24 04:17:53;;;;;;;14.10;3.47;;;;;;;;;;4974536;28;20172;-70
2024/01/24 04:20:19;;;;;;;13.93;4.03;;;;;;;;;;4986468;28;20266;-71
2024/01/24 04:22:44;;;;;;;13.27;4.30;;;;;;;;;;4981865;28;20267;-71
2024/01/24 04:25:09;;;;;;;21.33;3.85;;;;;;;;;;4988736;28;20607;-69
2024/01/24 04:27:36;;;;;;;16.15;4.65;;;;;;;;;;4984750;28;20173;-71
2024/01/24 04:30:02;;;;;;;17.98;3.13;;;;;;;;;;4986643;28;20183;-70
2024/01/24 04:32:27;;;;;;;25.45;4.63;;;;;;;;;;4989058;28;20237;-70
2024/01/24 04:34:53;;;;;;;31.33;5.72;;;;;;;;;;4989002;28;20567;-70
2024/01/24 04:37:18;;;;;;;21.15;4.53;;;;;;;;;;4982229;28;20274;-71
2024/01/24 04:39:43;;;;;;;26.90;4.13;;;;;;;;;;4986640;28;20175;-69
2024/01/24 04:42:09;;;;;;;29.75;6.72;;;;;;;;;;4986034;28;20185;-70
2024/01/24 04:44:34;;;;;;;23.35;4.53;;;;;;;;;;4990512;28;20195;-71
2024/01/24 04:47:01;;;;;;;25.00;5.57;;;;;;;;;;4987646;28;20542;-72
2024/01/24 04:49:26;;;;;;;15.30;4.55;;;;;;;;;;4987697;28;20503;-70
2024/01/24 04:51:51;;;;;;;17.48;4.35;;;;;;;;;;4989186;28;20186;-70
2024/01/24 04:54:16;;;;;;;20.35;3.78;;;;;;;;;;4982024;28;20724;-70
2024/01/24 04:56:45;;;;;;;23.50;4.80;;;;;;;;;;4985844;28;20171;-70
2024/01/24 04:59:11;;;;;;;17.55;4.13;;;;;;;;;;4970377;28;20172;-70
2024/01/24 05:01:37;;;;;;;28.15;4.80;;;;;;;;;;4988129;28;20806;-71
2024/01/24 05:04:03;;;;;;;24.60;4.85;;;;;;;;;;4990806;28;20235;-71
2024/01/24 05:06:28;;;;;;;20.80;5.05;;;;;;;;;;4981539;28;20194;-71
2024/01/24 05:08:53;;;;;;;18.02;4.10;;;;;;;;;;4971436;28;20190;-70
2024/01/24 05:11:19;;;;;;;20.00;3.85;;;;;;;;;;4986909;28;20184;-70
2024/01/24 05:13:44;;;;;;;21.10;4.63;;;;;;;;;;4977830;28;20239;-70
2024/01/24 05:16:09;;;;;;;21.85;4.65;;;;;;;;;;4983522;28;20172;-70
2024/01/24 05:18:35;;;;;;;21.20;5.15;;;;;;;;;;4990379;28;20191;-70
2024/01/24 05:21:02;;;;;;;19.13;3.95;;;;;;;;;;4985066;28;20184;-70
2024/01/24 05:23:27;;;;;;;31.25;5.63;;;;;;;;;;4985636;28;20247;-71
2024/01/24 05:25:52;;;;;;;21.73;5.13;;;;;;;;;;4989188;28;20183;-70
2024/01/24 05:28:18;;;;;;;30.42;5.88;;;;;;;;;;4988694;28;20242;-70
2024/01/24 05:30:43;;;;;;;16.77;4.63;;;;;;;;;;4982756;28;20200;-70
2024/01/24 05:33:10;;;;;;;30.50;5.55;;;;;;;;;;4988381;28;20215;-70
2024/01/24 05:35:35;;;;;;;33.17;6.53;;;;;;;;;;4983968;28;20173;-72
2024/01/24 05:38:00;;;;;;;23.33;5.05;;;;;;;;;;4966791;28;20186;-71
2024/01/24 05:40:26;;;;;;;33.28;5.75;;;;;;;;;;4988747;28;20192;-72
2024/01/24 05:42:51;;;;;;;19.15;4.93;;;;;;;;;;4975551;28;20274;-71
2024/01/24 05:45:16;;;;;;;22.67;4.28;;;;;;;;;;4994095;28;20238;-71
2024/01/24 05:47:43;;;;;;;32.80;7.80;;;;;;;;;;4992213;28;20599;-70
2024/01/24 05:50:14;;;;;;;29.27;5.13;;;;;;;;;;4993629;28;20187;-70
2024/01/24 05:52:42;;;;;;;20.85;5.63;;;;;;;;;;4976044;28;20184;-70
2024/01/24 05:55:09;;;;;;;24.95;6.57;;;;;;;;;;4986462;28;20234;-70
2024/01/24 05:57:35;;;;;;;18.90;4.13;;;;;;;;;;4986000;28;20681;-71
2024/01/24 06:00:00;;;;;;;20.65;5.50;;;;;;;;;;4985381;28;20263;-71
2024/01/24 06:02:25;;;;;;;24.60;5.53;;;;;;;;;;4990743;28;20267;-71
2024/01/24 06:04:50;;;;;;;23.30;4.43;;;;;;;;;;4992681;28;20199;-70
2024/01/24 06:07:16;;;;;;;24.33;5.93;;;;;;;;;;4992417;28;20176;-71
2024/01/24 06:09:41;;;;;;;27.98;6.63;;;;;;;;;;4987699;28;20576;-70
2024/01/24 06:12:06;;;;;;;28.67;4.68;;;;;;;;;;4993404;28;20183;-71
2024/01/24 06:14:31;;;;;;;24.77;6.27;;;;;;;;;;4989566;28;20208;-70
2024/01/24 06:16:56;;;;;;;27.50;6.15;;;;;;;;;;4984186;28;20176;-71
2024/01/24 06:19:22;;;;;;;17.67;5.03;;;;;;;;;;4991435;28;20611;-71
2024/01/24 06:21:47;;;;;;;25.10;5.00;;;;;;;;;;4975684;28;20275;-71
2024/01/24 06:24:12;;;;;;;30.17;5.93;;;;;;;;;;4985394;28;20383;-71
2024/01/24 06:26:38;;;;;;;23.17;4.35;;;;;;;;;;4992581;28;20231;-69
2024/01/24 06:29:03;;;;;;;31.23;6.43;;;;;;;;;;4984112;28;20271;-70
2024/01/24 06:31:28;;;;;;;23.27;5.60;;;;;;;;;;4992931;28;20216;-70
2024/01/24 06:33:54;;;;;;;30.23;5.53;;;;;;;;;;4992837;28;20354;-70
2024/01/24 06:36:20;;;;;;;29.93;6.53;;;;;;;;;;4982866;28;20180;-70
2024/01/24 06:38:45;;;;;;;28.00;5.33;;;;;;;;;;4981979;28;20209;-70
2024/01/24 06:41:11;;;;;;;29.67;6.03;;;;;;;;;;4989724;28;20188;-70
2024/01/24 06:43:40;;;;;;;23.45;6.72;;;;;;;;;;4988920;28;20201;-69
2024/01/24 06:46:05;;;;;;;26.20;5.33;;;;;;;;;;4988334;28;20260;-71
2024/01/24 06:48:30;;;;;;;32.13;6.57;;;;;;;;;;4987335;28;20264;-71
2024/01/24 06:50:55;;;;;;;32.53;6.63;;;;;;;;;;4991183;28;20186;-70
2024/01/24 06:53:20;;;;;;;27.83;6.30;;;;;;;;;;4971218;28;20566;-71
2024/01/24 06:55:46;;;;;;;20.40;4.67;;;;;;;;;;4981961;28;20258;-70
2024/01/24 06:58:11;;;;;;;18.63;4.77;;;;;;;;;;4988378;28;20187;-70
2024/01/24 07:00:36;;;;;;;23.33;5.23;;;;;;;;;;4962222;28;20247;-72
2024/01/24 07:03:02;;;;;;;31.17;5.63;;;;;;;;;;4985257;28;20239;-71
2024/01/24 07:05:27;;;;;;;23.37;5.40;;;;;;;;;;4990967;28;20187;-71
2024/01/24 07:07:52;;;;;;;32.33;6.33;;;;;;;;;;4985120;28;20188;-71
2024/01/24 07:10:17;;;;;;;34.93;7.63;;;;;;;;;;4990224;28;20229;-71
2024/01/24 07:12:45;;;;;;;28.33;6.37;;;;;;;;;;4983527;28;20172;-70
2024/01/24 07:15:11;;;;;;;27.27;6.30;;;;;;;;;;4991026;28;20209;-71
2024/01/24 07:17:36;;;;;;;28.07;5.20;;;;;;;;;;4969296;28;20712;-71
2024/01/24 07:20:02;;;;;;;26.93;4.73;;;;;;;;;;4971225;28;20259;-70
2024/01/24 07:22:27;;;;;;;27.17;5.83;;;;;;;;;;4986927;28;20187;-71
2024/01/24 07:24:52;;;;;;;26.80;6.10;;;;;;;;;;4989086;28;20204;-69
2024/01/24 07:27:18;;;;;;;32.10;5.90;;;;;;;;;;4990172;28;20239;-70
2024/01/24 07:29:43;;;;;;;22.77;5.83;;;;;;;;;;4974354;28;20195;-70
2024/01/24 07:32:08;;;;;;;24.40;5.70;;;;;;;;;;4985064;28;20275;-70
2024/01/24 07:34:35;;;;;;;28.73;4.90;;;;;;;;;;4986577;28;20217;-70
2024/01/24 07:37:00;;;;;;;29.53;5.50;;;;;;;;;;4968282;28;20176;-71
2024/01/24 07:39:28;;;;;;;37.43;6.23;;;;;;;;;;4989864;28;20176;-70
2024/01/24 07:41:54;;;;;;;31.00;6.10;;;;;;;;;;4971351;28;20645;-70
2024/01/24 07:44:19;;;;;;;29.87;5.33;;;;;;;;;;4987390;28;20215;-72
2024/01/24 07:46:45;;;;;;;22.77;5.97;;;;;;;;;;4964819;28;20202;-71
2024/01/24 07:49:10;;;;;;;48.63;6.70;;;;;;;;;;4980695;28;20203;-69
2024/01/24 07:51:36;;;;;;;26.70;4.87;;;;;;;;;;4990036;28;20184;-70
2024/01/24 07:54:01;;;;;;;35.83;5.43;;;;;;;;;;4987700;28;20617;-70
2024/01/24 07:56:26;;;;;;;33.40;5.77;;;;;;;;;;4986655;28;20179;-71
2024/01/24 07:58:51;;;;;;;32.57;6.23;;;;;;;;;;4991610;28;20215;-70
2024/01/24 08:01:17;;;;;;;26.30;4.80;;;;;;;;;;4985716;28;20175;-69
2024/01/24 08:03:42;;;;;;;20.17;4.87;;;;;;;;;;4988715;28;20286;-70
2024/01/24 08:06:07;;;;;;;29.03;6.00;;;;;;;;;;4988173;28;20682;-70
2024/01/24 08:08:33;;;;;;;12.27;4.40;;;;;;;;;;4986260;28;20259;-71
2024/01/24 08:10:59;;;;;;;25.77;5.43;;;;;;;;;;4987430;28;20270;-71
2024/01/24 08:13:24;;;;;;;26.80;5.47;;;;;;;;;;4990437;28;20215;-70
2024/01/24 08:15:49;;;;;;;24.60;5.87;;;;;;;;;;4983211;28;20195;-70
2024/01/24 08:18:14;;;;;;;26.53;5.50;;;;;;;;;;4989015;28;20268;-71
2024/01/24 08:20:39;;;;;;;27.03;4.90;;;;;;;;;;4989975;28;20742;-69
2024/01/24 08:23:05;;;;;;;23.23;5.00;;;;;;;;;;4988100;28;20195;-69
2024/01/24 08:25:31;;;;;;;22.50;4.47;;;;;;;;;;4990284;28;20216;-69
2024/01/24 08:27:57;;;;;;;25.83;6.00;;;;;;;;;;4984214;28;20241;-71
2024/01/24 08:30:22;;;;;;;28.83;4.70;;;;;;;;;;4988742;28;20198;-69
2024/01/24 08:32:48;;;;;;;28.13;4.93;;;;;;;;;;4973030;28;20505;-70
2024/01/24 08:35:13;;;;;;;30.00;6.33;;;;;;;;;;4989293;28;20195;-70
2024/01/24 08:37:38;;;;;;;24.47;4.03;;;;;;;;;;4985074;28;20718;-68
2024/01/24 08:40:04;;;;;;;24.90;6.83;;;;;;;;;;4966807;28;20175;-69
2024/01/24 08:42:29;;;;;;;42.90;5.83;;;;;;;;;;4990207;28;20183;-70
2024/01/24 08:44:54;;;;;;;31.97;6.43;;;;;;;;;;4987900;28;20196;-69
2024/01/24 08:47:20;;;;;;;23.50;5.70;;;;;;;;;;4989819;28;20253;-70
2024/01/24 08:49:45;;;;;;;21.23;5.13;;;;;;;;;;4988238;28;20176;-69
2024/01/24 08:52:10;;;;;;;20.40;4.97;;;;;;;;;;4985925;28;20183;-70
2024/01/24 08:54:35;;;;;;;17.00;4.10;;;;;;;;;;4988030;28;20199;-69
2024/01/24 08:57:00;;;;;;;26.50;4.93;;;;;;;;;;4987519;28;20187;-70
2024/01/24 08:59:26;;;;;;;20.63;4.53;;;;;;;;;;4970256;28;20711;-70
2024/01/24 09:01:55;;;;;;;22.93;6.30;;;;;;;;;;4988162;28;20191;-71
2024/01/24 09:04:20;;;;;;;21.13;5.60;;;;;;;;;;4971520;28;20200;-69
2024/01/24 09:06:45;;;;;;;31.40;5.60;;;;;;;;;;4989404;28;20194;-70
2024/01/24 09:09:13;;;;;;;28.00;5.53;;;;;;;;;;4990190;28;20566;-70
2024/01/24 09:11:39;;;;;;;28.03;5.47;;;;;;;;;;4993778;28;20261;-70
2024/01/24 09:14:04;;;;;;;22.17;4.73;;;;;;;;;;4988130;28;20687;-69
2024/01/24 09:16:29;;;;;;;23.55;4.65;;;;;;;;;;4989317;28;20186;-70
2024/01/24 09:18:54;;;;;;;23.57;4.97;;;;;;;;;;4971846;28;20179;-69
2024/01/24 09:21:20;;;;;;;23.27;5.13;;;;;;;;;;4991478;28;20180;-70
2024/01/24 09:23:49;;;;;;;23.27;5.17;;;;;;;;;;4992971;28;20206;-71
2024/01/24 09:26:14;;;;;;;34.57;6.10;;;;;;;;;;4973875;28;20561;-71
2024/01/24 09:28:40;;;;;;;25.67;4.65;;;;;;;;;;4993347;28;20255;-71
2024/01/24 09:31:05;;;;;;;20.60;4.80;;;;;;;;;;4991833;28;20202;-70
2024/01/24 09:33:30;;;;;;;22.10;5.33;;;;;;;;;;4974364;28;20614;-71
2024/01/24 09:35:56;;;;;;;30.83;5.73;;;;;;;;;;4974090;28;20560;-70
2024/01/24 09:38:21;;;;;;;26.48;4.30;;;;;;;;;;4991664;28;20198;-71
2024/01/24 09:40:46;;;;;;;30.30;5.65;;;;;;;;;;4974656;28;20662;-70
2024/01/24 09:43:12;;;;;;;28.40;6.32;;;;;;;;;;4992433;28;20192;-69
2024/01/24 09:45:40;;;;;;;19.23;4.63;;;;;;;;;;4972335;28;20186;-70
2024/01/24 09:48:09;;;;;;;31.33;5.40;;;;;;;;;;4988802;28;20183;-70
2024/01/24 09:50:35;;;;;;;32.65;5.70;;;;;;;;;;4988126;28;20202;-69
2024/01/24 09:53:03;;;;;;;25.05;5.68;;;;;;;;;;4972214;28;20623;-70
2024/01/24 09:55:29;;;;;;;27.65;6.10;;;;;;;;;;4984614;28;20837;-71
2024/01/24 09:57:55;;;;;;;21.85;4.22;;;;;;;;;;4989166;28;20260;-69
2024/01/24 10:00:21;;;;;;;40.60;5.97;;;;;;;;;;4990199;28;20562;-70
2024/01/24 10:02:47;;;;;;;20.35;5.78;;;;;;;;;;4990858;28;20172;-70
2024/01/24 10:05:13;;;;;;;23.17;4.80;;;;;;;;;;4988607;28;20250;-69
2024/01/24 10:07:38;;;;;;;19.20;4.32;;;;;;;;;;4985050;28;20175;-70
2024/01/24 10:10:06;;;;;;;24.45;4.65;;;;;;;;;;4990202;28;20256;-69
2024/01/24 10:12:31;;;;;;;23.20;6.20;;;;;;;;;;4990055;28;20715;-69
2024/01/24 10:14:56;;;;;;;26.08;6.50;;;;;;;;;;4986737;28;20215;-70
2024/01/24 10:17:22;;;;;;;22.02;4.93;;;;;;;;;;4986270;28;20193;-70
2024/01/24 10:19:47;;;;;;;30.85;5.93;;;;;;;;;;4992359;28;20198;-69
2024/01/24 10:22:12;;;;;;;17.80;4.82;;;;;;;;;;4987992;28;20180;-70
2024/01/24 10:24:37;;;;;;;22.10;5.35;;;;;;;;;;4990727;28;20195;-69
2024/01/24 10:27:03;;;;;;;19.20;5.93;;;;;;;;;;4989455;28;20187;-69
2024/01/24 10:29:29;;;;;;;27.77;5.03;;;;;;;;;;4973018;28;20186;-69
2024/01/24 10:31:55;;;;;;;20.67;4.85;;;;;;;;;;4991724;28;20767;-70
2024/01/24 10:34:21;;;;;;;28.42;4.78;;;;;;;;;;4988589;28;20215;-70
2024/01/24 10:36:47;;;;;;;24.40;5.88;;;;;;;;;;4990923;28;20566;-71
2024/01/24 10:39:14;;;;;;;24.10;5.25;;;;;;;;;;4990221;28;20172;-70
2024/01/24 10:41:40;;;;;;;26.08;5.88;;;;;;;;;;4990714;28;20187;-70
2024/01/24 10:44:09;;;;;;;28.45;6.45;;;;;;;;;;4969880;28;20211;-71
2024/01/24 10:46:36;;;;;;;28.80;5.38;;;;;;;;;;4991670;28;20663;-69
2024/01/24 10:49:02;;;;;;;29.05;6.75;;;;;;;;;;4990190;28;20655;-70
2024/01/24 10:51:27;;;;;;;25.50;5.53;;;;;;;;;;4991395;28;20184;-70
2024/01/24 10:53:54;;;;;;;25.15;4.85;;;;;;;;;;4989538;28;20215;-70
2024/01/24 10:56:19;;;;;;;25.23;5.53;;;;;;;;;;4970947;28;20188;-70
2024/01/24 10:58:45;;;;;;;20.98;4.68;;;;;;;;;;4989962;28;20262;-70
2024/01/24 11:01:10;;;;;;;22.10;4.68;;;;;;;;;;4988651;28;20234;-70
2024/01/24 11:03:35;;;;;;;31.50;6.90;;;;;;;;;;4987087;28;20200;-70
2024/01/24 11:06:03;;;;;;;22.58;5.47;;;;;;;;;;4972175;28;20180;-70
2024/01/24 11:08:48;;;;;;;27.25;4.82;;;;;;;;;;4989506;28;20246;-71
2024/01/24 11:11:14;;;;;;;20.75;5.43;;;;;;;;;;4983817;28;20191;-71
2024/01/24 11:13:40;;;;;;;26.35;5.10;;;;;;;;;;4990910;28;20273;-71
2024/01/24 11:16:25;;;;;;;21.63;4.57;;;;;;;;;;4972325;28;20594;-71
2024/01/24 11:18:51;;;;;;;17.40;4.50;;;;;;;;;;4987182;28;20293;-70
2024/01/24 11:21:20;;;;;;;20.55;4.72;;;;;;;;;;4973216;28;20179;-70
2024/01/24 11:23:46;;;;;;;20.30;5.25;;;;;;;;;;4987710;28;20290;-70
2024/01/24 11:26:17;;;;;;;24.40;4.30;;;;;;;;;;4986951;28;20198;-71
2024/01/24 11:28:43;;;;;;;19.33;4.45;;;;;;;;;;4984706;28;20183;-70
2024/01/24 11:31:09;;;;;;;33.47;6.22;;;;;;;;;;4987700;28;20278;-70
2024/01/24 11:33:34;;;;;;;20.92;4.30;;;;;;;;;;4969429;28;20219;-69
2024/01/24 11:36:01;;;;;;;29.80;5.68;;;;;;;;;;4972442;28;20187;-69
2024/01/24 11:38:26;;;;;;;13.93;4.10;;;;;;;;;;4988391;28;20191;-70
2024/01/24 11:41:11;;;;;;;16.25;4.45;;;;;;;;;;4971794;28;20175;-70
2024/01/24 11:43:37;;;;;;;21.20;4.32;;;;;;;;;;4975051;28;20226;-70
2024/01/24 11:46:03;;;;;;;34.10;4.80;;;;;;;;;;4988283;28;20180;-70
2024/01/24 11:48:30;;;;;;;23.60;4.93;;;;;;;;;;4985683;28;20188;-70
2024/01/24 11:51:14;;;;;;;23.35;5.03;;;;;;;;;;4988313;28;20187;-70
2024/01/24 11:53:39;;;;;;;21.00;4.50;;;;;;;;;;4987005;28;20215;-71
2024/01/24 11:56:06;;;;;;;20.65;4.75;;;;;;;;;;4983878;28;20669;-69
2024/01/24 11:58:31;;;;;;;21.90;4.80;;;;;;;;;;4980559;28;20186;-71
2024/01/24 12:00:59;;;;;;;20.10;5.75;;;;;;;;;;4971367;28;20171;-69
2024/01/24 12:03:25;;;;;;;22.52;4.65;;;;;;;;;;4972918;28;20209;-69
2024/01/24 12:05:50;;;;;;;21.63;4.60;;;;;;;;;;4987335;28;21447;-69
2024/01/24 12:08:16;;;;;;;26.15;5.35;;;;;;;;;;4988134;28;20188;-70
2024/01/24 12:10:41;;;;;;;18.55;4.00;;;;;;;;;;4988986;28;20222;-69
2024/01/24 12:13:07;;;;;;;18.20;4.38;;;;;;;;;;4986314;28;20183;-70
2024/01/24 12:15:35;;;;;;;18.05;4.45;;;;;;;;;;4970478;28;20183;-70
2024/01/24 12:18:04;;;;;;;21.08;4.47;;;;;;;;;;4988592;28;20218;-70
2024/01/24 12:20:29;;;;;;;29.98;4.97;;;;;;;;;;4983882;28;20503;-69
2024/01/24 12:22:55;;;;;;;22.95;5.18;;;;;;;;;;4966635;28;20179;-69
2024/01/24 12:25:20;;;;;;;16.98;4.13;;;;;;;;;;4989569;28;20719;-70
2024/01/24 12:27:46;;;;;;;21.65;4.68;;;;;;;;;;4972731;28;20180;-69
2024/01/24 12:30:11;;;;;;;17.08;4.35;;;;;;;;;;4986214;28;20619;-70
2024/01/24 12:32:37;;;;;;;29.35;5.03;;;;;;;;;;4988953;28;20174;-70
2024/01/24 12:35:03;;;;;;;17.25;4.10;;;;;;;;;;4988523;28;20222;-70
2024/01/24 12:37:29;;;;;;;18.42;4.35;;;;;;;;;;4990767;28;20186;-69
2024/01/24 12:39:54;;;;;;;28.00;5.25;;;;;;;;;;4976984;28;20171;-69
2024/01/24 12:42:19;;;;;;;25.27;3.80;;;;;;;;;;4994505;28;20183;-70
2024/01/24 12:44:50;;;;;;;19.45;5.05;;;;;;;;;;4988023;28;20194;-70
2024/01/24 12:47:15;;;;;;;19.15;4.55;;;;;;;;;;4976204;28;20615;-70
2024/01/24 12:49:40;;;;;;;16.10;4.10;;;;;;;;;;4992379;28;20238;-71
2024/01/24 12:52:06;;;;;;;20.98;4.35;;;;;;;;;;4993903;28;20179;-71
2024/01/24 12:54:31;;;;;;;24.10;4.97;;;;;;;;;;4970932;28;20245;-71
2024/01/24 12:56:56;;;;;;;16.13;3.85;;;;;;;;;;4974568;28;20176;-72
2024/01/24 12:59:21;;;;;;;17.13;4.70;;;;;;;;;;4990681;28;20194;-70
2024/01/24 13:01:47;;;;;;;12.70;4.20;;;;;;;;;;4989843;28;20199;-71
2024/01/24 13:04:13;;;;;;;26.85;4.30;;;;;;;;;;4973145;28;20199;-71
2024/01/24 13:06:40;;;;;;;17.23;4.15;;;;;;;;;;4991498;28;20221;-70
2024/01/24 13:09:06;;;;;;;12.70;4.18;;;;;;;;;;4992287;28;20604;-69
2024/01/24 13:11:31;;;;;;;25.20;5.03;;;;;;;;;;4974306;28;20202;-69
2024/01/24 13:13:57;;;;;;;17.80;4.72;;;;;;;;;;4991709;28;20766;-70
2024/01/24 13:16:22;;;;;;;22.50;4.82;;;;;;;;;;4991668;28;20214;-70
2024/01/24 13:18:47;;;;;;;22.30;5.45;;;;;;;;;;4972382;28;20176;-70
2024/01/24 13:21:12;;;;;;;14.70;4.05;;;;;;;;;;4991600;28;20291;-70
2024/01/24 13:23:39;;;;;;;13.85;4.28;;;;;;;;;;4992966;28;20291;-72
2024/01/24 13:26:04;;;;;;;18.85;5.25;;;;;;;;;;4990905;28;20179;-69
2024/01/24 13:28:29;;;;;;;22.98;3.97;;;;;;;;;;4986050;28;20195;-70
2024/01/24 13:30:54;;;;;;;27.05;5.25;;;;;;;;;;4974613;28;20226;-70
2024/01/24 13:33:20;;;;;;;22.70;5.13;;;;;;;;;;4992935;28;20203;-69
2024/01/24 13:35:45;;;;;;;21.80;3.97;;;;;;;;;;4989465;28;20176;-71
2024/01/24 13:38:11;;;;;;;18.70;3.83;;;;;;;;;;4989424;28;20187;-70
2024/01/24 13:40:36;;;;;;;23.85;4.72;;;;;;;;;;4974530;28;20178;-69
2024/01/24 13:43:01;;;;;;;27.67;5.38;;;;;;;;;;4990785;28;20557;-71
2024/01/24 13:45:27;;;;;;;24.75;4.93;;;;;;;;;;4990497;28;20191;-70
2024/01/24 13:47:52;;;;;;;21.02;4.93;;;;;;;;;;4991860;28;20234;-69
2024/01/24 13:50:17;;;;;;;16.73;4.85;;;;;;;;;;4989464;28;20171;-69
2024/01/24 13:52:42;;;;;;;20.73;4.93;;;;;;;;;;4992963;28;20180;-70
2024/01/24 13:55:07;;;;;;;16.98;4.97;;;;;;;;;;4991483;28;20215;-70
2024/01/24 13:57:33;;;;;;;14.50;3.97;;;;;;;;;;4988200;28;20258;-71
2024/01/24 13:59:58;;;;;;;21.33;4.53;;;;;;;;;;4990527;28;20180;-70
2024/01/24 14:02:23;;;;;;;13.50;4.55;;;;;;;;;;4992023;28;20184;-70
2024/01/24 14:04:48;;;;;;;30.25;5.30;;;;;;;;;;4989658;28;20207;-69
2024/01/24 14:07:13;;;;;;;18.52;4.82;;;;;;;;;;4990620;28;20180;-69
2024/01/24 14:09:39;;;;;;;20.13;4.85;;;;;;;;;;4990894;28;20683;-69
2024/01/24 14:12:04;;;;;;;15.30;4.10;;;;;;;;;;4992786;28;20734;-70
2024/01/24 14:14:29;;;;;;;26.20;4.68;;;;;;;;;;4988955;28;20717;-69
2024/01/24 14:16:55;;;;;;;19.63;4.78;;;;;;;;;;4990997;28;20176;-70
2024/01/24 14:19:21;;;;;;;32.40;5.65;;;;;;;;;;4991796;28;20186;-70
2024/01/24 14:21:46;;;;;;;17.15;4.05;;;;;;;;;;4990864;28;20215;-70
2024/01/24 14:24:11;;;;;;;22.67;5.07;;;;;;;;;;4990682;28;20226;-70